sensor_id;sensor_type;location;lat;lon;timestamp;P1;durP1;ratioP1;P2;durP2;ratioP2
9330;SDS011;4704;50.470;12.072;2022-12-18T00:01:14;5.72;;;5.22;;
9330;SDS011;4704;50.470;12.072;2022-12-18T00:03:42;5.68;;;5.18;;
9330;SDS011;4704;50.470;12.072;2022-12-18T00:06:11;5.65;;;5.15;;
9330;SDS011;4704;50.470;12.072;2022-12-18T00:08:39;5.93;;;5.43;;
9330;SDS011;4704;50.470;12.072;2022-12-18T00:11:08;6.10;;;5.50;;
9330;SDS011;4704;50.470;12.072;2022-12-18T00:13:36;6.00;;;5.50;;
9330;SDS011;4704;50.470;12.072;2022-12-18T00:16:04;5.60;;;5.10;;
9330;SDS011;4704;50.470;12.072;2022-12-18T00:18:33;5.88;;;5.38;;
9330;SDS011;4704;50.470;12.072;2022-12-18T00:21:01;5.63;;;5.13;;
9330;SDS011;4704;50.470;12.072;2022-12-18T00:23:33;5.43;;;4.93;;
9330;SDS011;4704;50.470;12.072;2022-12-18T00:26:01;5.80;;;5.30;;
9330;SDS011;4704;50.470;12.072;2022-12-18T00:28:29;5.47;;;4.97;;
9330;SDS011;4704;50.470;12.072;2022-12-18T00:30:59;5.60;;;5.10;;
9330;SDS011;4704;50.470;12.072;2022-12-18T00:33:27;5.45;;;4.95;;
9330;SDS011;4704;50.470;12.072;2022-12-18T00:35:59;5.82;;;5.32;;
9330;SDS011;4704;50.470;12.072;2022-12-18T00:38:27;5.70;;;5.20;;
9330;SDS011;4704;50.470;12.072;2022-12-18T00:40:56;5.40;;;4.90;;
9330;SDS011;4704;50.470;12.072;2022-12-18T00:43:24;5.13;;;4.72;;
9330;SDS011;4704;50.470;12.072;2022-12-18T00:45:53;5.50;;;5.10;;
9330;SDS011;4704;50.470;12.072;2022-12-18T00:48:21;5.20;;;4.80;;
9330;SDS011;4704;50.470;12.072;2022-12-18T00:50:49;5.30;;;4.90;;
9330;SDS011;4704;50.470;12.072;2022-12-18T00:53:17;5.28;;;4.85;;
9330;SDS011;4704;50.470;12.072;2022-12-18T00:55:45;5.75;;;5.22;;
9330;SDS011;4704;50.470;12.072;2022-12-18T00:58:15;5.50;;;5.00;;
9330;SDS011;4704;50.470;12.072;2022-12-18T01:00:44;5.60;;;5.10;;
9330;SDS011;4704;50.470;12.072;2022-12-18T01:03:13;5.70;;;5.20;;
9330;SDS011;4704;50.470;12.072;2022-12-18T01:05:41;5.40;;;4.90;;
9330;SDS011;4704;50.470;12.072;2022-12-18T01:08:09;5.45;;;4.95;;
9330;SDS011;4704;50.470;12.072;2022-12-18T01:10:39;5.55;;;5.05;;
9330;SDS011;4704;50.470;12.072;2022-12-18T01:13:08;5.78;;;5.28;;
9330;SDS011;4704;50.470;12.072;2022-12-18T01:15:37;6.00;;;5.50;;
9330;SDS011;4704;50.470;12.072;2022-12-18T01:18:05;5.47;;;5.00;;
9330;SDS011;4704;50.470;12.072;2022-12-18T01:20:33;5.47;;;4.97;;
9330;SDS011;4704;50.470;12.072;2022-12-18T01:23:01;5.60;;;5.10;;
9330;SDS011;4704;50.470;12.072;2022-12-18T01:25:29;5.38;;;4.95;;
9330;SDS011;4704;50.470;12.072;2022-12-18T01:27:56;5.93;;;5.43;;
9330;SDS011;4704;50.470;12.072;2022-12-18T01:30:24;5.82;;;5.32;;
9330;SDS011;4704;50.470;12.072;2022-12-18T01:32:53;5.80;;;5.30;;
9330;SDS011;4704;50.470;12.072;2022-12-18T01:35:21;5.70;;;5.20;;
9330;SDS011;4704;50.470;12.072;2022-12-18T01:37:49;6.05;;;5.45;;
9330;SDS011;4704;50.470;12.072;2022-12-18T01:40:21;6.05;;;5.55;;
9330;SDS011;4704;50.470;12.072;2022-12-18T01:42:50;6.00;;;5.50;;
9330;SDS011;4704;50.470;12.072;2022-12-18T01:45:22;5.90;;;5.40;;
9330;SDS011;4704;50.470;12.072;2022-12-18T01:47:51;5.70;;;5.20;;
9330;SDS011;4704;50.470;12.072;2022-12-18T01:50:22;5.78;;;5.28;;
9330;SDS011;4704;50.470;12.072;2022-12-18T01:52:50;5.75;;;5.25;;
9330;SDS011;4704;50.470;12.072;2022-12-18T01:55:20;5.40;;;5.00;;
9330;SDS011;4704;50.470;12.072;2022-12-18T01:57:49;5.50;;;5.00;;
9330;SDS011;4704;50.470;12.072;2022-12-18T02:00:20;6.03;;;5.47;;
9330;SDS011;4704;50.470;12.072;2022-12-18T02:02:48;6.20;;;5.60;;
9330;SDS011;4704;50.470;12.072;2022-12-18T02:05:16;6.38;;;5.78;;
9330;SDS011;4704;50.470;12.072;2022-12-18T02:07:48;5.50;;;5.00;;
9330;SDS011;4704;50.470;12.072;2022-12-18T02:10:20;5.85;;;5.35;;
9330;SDS011;4704;50.470;12.072;2022-12-18T02:12:52;6.05;;;5.55;;
9330;SDS011;4704;50.470;12.072;2022-12-18T02:15:23;5.90;;;5.40;;
9330;SDS011;4704;50.470;12.072;2022-12-18T02:17:54;6.15;;;5.60;;
9330;SDS011;4704;50.470;12.072;2022-12-18T02:20:25;6.30;;;5.72;;
9330;SDS011;4704;50.470;12.072;2022-12-18T02:23:04;6.40;;;5.80;;
9330;SDS011;4704;50.470;12.072;2022-12-18T02:25:40;6.13;;;5.60;;
9330;SDS011;4704;50.470;12.072;2022-12-18T02:28:11;6.43;;;5.82;;
9330;SDS011;4704;50.470;12.072;2022-12-18T02:30:40;6.25;;;5.65;;
9330;SDS011;4704;50.470;12.072;2022-12-18T02:33:08;6.07;;;5.57;;
9330;SDS011;4704;50.470;12.072;2022-12-18T02:35:37;6.25;;;5.75;;
9330;SDS011;4704;50.470;12.072;2022-12-18T02:38:06;6.15;;;5.65;;
9330;SDS011;4704;50.470;12.072;2022-12-18T02:40:34;5.60;;;5.10;;
9330;SDS011;4704;50.470;12.072;2022-12-18T02:43:03;5.65;;;5.15;;
9330;SDS011;4704;50.470;12.072;2022-12-18T02:45:35;5.82;;;5.32;;
9330;SDS011;4704;50.470;12.072;2022-12-18T02:48:03;6.18;;;5.68;;
9330;SDS011;4704;50.470;12.072;2022-12-18T02:50:33;6.22;;;5.72;;
9330;SDS011;4704;50.470;12.072;2022-12-18T02:53:04;5.90;;;5.40;;
9330;SDS011;4704;50.470;12.072;2022-12-18T02:55:37;5.82;;;5.32;;
9330;SDS011;4704;50.470;12.072;2022-12-18T02:58:09;5.90;;;5.40;;
9330;SDS011;4704;50.470;12.072;2022-12-18T03:00:42;5.68;;;5.18;;
9330;SDS011;4704;50.470;12.072;2022-12-18T03:03:14;6.00;;;5.50;;
9330;SDS011;4704;50.470;12.072;2022-12-18T03:05:44;6.03;;;5.53;;
9330;SDS011;4704;50.470;12.072;2022-12-18T03:08:16;5.90;;;5.35;;
9330;SDS011;4704;50.470;12.072;2022-12-18T03:10:46;6.00;;;5.40;;
9330;SDS011;4704;50.470;12.072;2022-12-18T03:13:18;6.28;;;5.78;;
9330;SDS011;4704;50.470;12.072;2022-12-18T03:15:49;6.25;;;5.65;;
9330;SDS011;4704;50.470;12.072;2022-12-18T03:18:18;5.78;;;5.30;;
9330;SDS011;4704;50.470;12.072;2022-12-18T03:20:48;5.45;;;4.95;;
9330;SDS011;4704;50.470;12.072;2022-12-18T03:23:17;6.13;;;5.53;;
9330;SDS011;4704;50.470;12.072;2022-12-18T03:25:46;6.10;;;5.60;;
9330;SDS011;4704;50.470;12.072;2022-12-18T03:28:15;6.03;;;5.53;;
9330;SDS011;4704;50.470;12.072;2022-12-18T03:30:44;6.05;;;5.55;;
9330;SDS011;4704;50.470;12.072;2022-12-18T03:33:16;5.82;;;5.32;;
9330;SDS011;4704;50.470;12.072;2022-12-18T03:35:46;5.78;;;5.28;;
9330;SDS011;4704;50.470;12.072;2022-12-18T03:38:14;5.82;;;5.32;;
9330;SDS011;4704;50.470;12.072;2022-12-18T03:40:44;5.82;;;5.32;;
9330;SDS011;4704;50.470;12.072;2022-12-18T03:43:16;6.03;;;5.53;;
9330;SDS011;4704;50.470;12.072;2022-12-18T03:45:48;5.82;;;5.32;;
9330;SDS011;4704;50.470;12.072;2022-12-18T03:48:20;5.75;;;5.25;;
9330;SDS011;4704;50.470;12.072;2022-12-18T03:50:53;5.63;;;5.13;;
9330;SDS011;4704;50.470;12.072;2022-12-18T03:53:25;6.05;;;5.55;;
9330;SDS011;4704;50.470;12.072;2022-12-18T03:55:54;5.80;;;5.30;;
9330;SDS011;4704;50.470;12.072;2022-12-18T03:58:23;5.88;;;5.38;;
9330;SDS011;4704;50.470;12.072;2022-12-18T04:00:52;6.00;;;5.47;;
9330;SDS011;4704;50.470;12.072;2022-12-18T04:03:24;5.63;;;5.13;;
9330;SDS011;4704;50.470;12.072;2022-12-18T04:05:53;5.50;;;5.00;;
9330;SDS011;4704;50.470;12.072;2022-12-18T04:08:22;5.63;;;5.10;;
9330;SDS011;4704;50.470;12.072;2022-12-18T04:10:50;5.90;;;5.38;;
9330;SDS011;4704;50.470;12.072;2022-12-18T04:13:21;6.40;;;5.78;;
9330;SDS011;4704;50.470;12.072;2022-12-18T04:15:49;5.75;;;5.25;;
9330;SDS011;4704;50.470;12.072;2022-12-18T04:18:17;6.18;;;5.57;;
9330;SDS011;4704;50.470;12.072;2022-12-18T04:20:46;5.80;;;5.30;;
9330;SDS011;4704;50.470;12.072;2022-12-18T04:23:14;5.57;;;5.07;;
9330;SDS011;4704;50.470;12.072;2022-12-18T04:25:41;5.88;;;5.38;;
9330;SDS011;4704;50.470;12.072;2022-12-18T04:28:09;5.60;;;5.10;;
9330;SDS011;4704;50.470;12.072;2022-12-18T04:30:37;6.10;;;5.50;;
9330;SDS011;4704;50.470;12.072;2022-12-18T04:33:07;5.60;;;5.10;;
9330;SDS011;4704;50.470;12.072;2022-12-18T04:35:35;5.40;;;4.90;;
9330;SDS011;4704;50.470;12.072;2022-12-18T04:38:04;5.85;;;5.35;;
9330;SDS011;4704;50.470;12.072;2022-12-18T04:40:33;5.78;;;5.25;;
9330;SDS011;4704;50.470;12.072;2022-12-18T04:43:01;5.72;;;5.22;;
9330;SDS011;4704;50.470;12.072;2022-12-18T04:45:29;5.63;;;5.13;;
9330;SDS011;4704;50.470;12.072;2022-12-18T04:47:57;6.05;;;5.45;;
9330;SDS011;4704;50.470;12.072;2022-12-18T04:50:25;5.20;;;4.80;;
9330;SDS011;4704;50.470;12.072;2022-12-18T04:52:52;5.30;;;4.90;;
9330;SDS011;4704;50.470;12.072;2022-12-18T04:55:21;5.40;;;5.00;;
9330;SDS011;4704;50.470;12.072;2022-12-18T04:58:07;5.15;;;4.68;;
9330;SDS011;4704;50.470;12.072;2022-12-18T05:00:35;5.88;;;5.38;;
9330;SDS011;4704;50.470;12.072;2022-12-18T05:03:02;5.72;;;5.22;;
9330;SDS011;4704;50.470;12.072;2022-12-18T05:05:30;5.80;;;5.30;;
9330;SDS011;4704;50.470;12.072;2022-12-18T05:07:57;5.53;;;5.03;;
9330;SDS011;4704;50.470;12.072;2022-12-18T05:10:26;5.35;;;4.93;;
9330;SDS011;4704;50.470;12.072;2022-12-18T05:12:54;5.80;;;5.30;;
9330;SDS011;4704;50.470;12.072;2022-12-18T05:15:24;5.72;;;5.22;;
9330;SDS011;4704;50.470;12.072;2022-12-18T05:17:53;5.55;;;5.05;;
9330;SDS011;4704;50.470;12.072;2022-12-18T05:20:20;5.60;;;5.10;;
9330;SDS011;4704;50.470;12.072;2022-12-18T05:22:48;5.85;;;5.35;;
9330;SDS011;4704;50.470;12.072;2022-12-18T05:25:15;5.53;;;5.03;;
9330;SDS011;4704;50.470;12.072;2022-12-18T05:27:44;5.57;;;5.07;;
9330;SDS011;4704;50.470;12.072;2022-12-18T05:30:12;5.72;;;5.15;;
9330;SDS011;4704;50.470;12.072;2022-12-18T05:32:40;5.40;;;4.93;;
9330;SDS011;4704;50.470;12.072;2022-12-18T05:35:08;5.78;;;5.28;;
9330;SDS011;4704;50.470;12.072;2022-12-18T05:37:36;5.88;;;5.30;;
9330;SDS011;4704;50.470;12.072;2022-12-18T05:40:03;5.97;;;5.47;;
9330;SDS011;4704;50.470;12.072;2022-12-18T05:42:31;5.53;;;5.03;;
9330;SDS011;4704;50.470;12.072;2022-12-18T05:45:00;5.45;;;4.95;;
9330;SDS011;4704;50.470;12.072;2022-12-18T05:47:27;5.03;;;4.63;;
9330;SDS011;4704;50.470;12.072;2022-12-18T05:49:55;5.32;;;4.82;;
9330;SDS011;4704;50.470;12.072;2022-12-18T05:52:22;5.47;;;4.97;;
9330;SDS011;4704;50.470;12.072;2022-12-18T05:54:50;5.68;;;5.18;;
9330;SDS011;4704;50.470;12.072;2022-12-18T05:57:17;5.50;;;5.05;;
9330;SDS011;4704;50.470;12.072;2022-12-18T05:59:45;5.47;;;5.03;;
9330;SDS011;4704;50.470;12.072;2022-12-18T06:02:14;6.32;;;5.72;;
9330;SDS011;4704;50.470;12.072;2022-12-18T06:04:41;5.60;;;5.10;;
9330;SDS011;4704;50.470;12.072;2022-12-18T06:07:09;6.00;;;5.40;;
9330;SDS011;4704;50.470;12.072;2022-12-18T06:09:36;5.47;;;4.97;;
9330;SDS011;4704;50.470;12.072;2022-12-18T06:12:03;5.68;;;5.18;;
9330;SDS011;4704;50.470;12.072;2022-12-18T06:14:31;5.30;;;4.85;;
9330;SDS011;4704;50.470;12.072;2022-12-18T06:16:58;5.70;;;5.20;;
9330;SDS011;4704;50.470;12.072;2022-12-18T06:19:27;5.30;;;4.80;;
9330;SDS011;4704;50.470;12.072;2022-12-18T06:21:54;5.47;;;4.97;;
9330;SDS011;4704;50.470;12.072;2022-12-18T06:24:24;5.55;;;5.05;;
9330;SDS011;4704;50.470;12.072;2022-12-18T06:26:51;5.20;;;4.80;;
9330;SDS011;4704;50.470;12.072;2022-12-18T06:29:18;5.22;;;4.75;;
9330;SDS011;4704;50.470;12.072;2022-12-18T06:31:46;5.45;;;4.95;;
9330;SDS011;4704;50.470;12.072;2022-12-18T06:34:13;5.40;;;4.90;;
9330;SDS011;4704;50.470;12.072;2022-12-18T06:36:42;5.57;;;5.07;;
9330;SDS011;4704;50.470;12.072;2022-12-18T06:39:10;4.70;;;4.30;;
9330;SDS011;4704;50.470;12.072;2022-12-18T06:41:37;5.40;;;4.93;;
9330;SDS011;4704;50.470;12.072;2022-12-18T06:44:05;5.05;;;4.60;;
9330;SDS011;4704;50.470;12.072;2022-12-18T06:46:32;4.97;;;4.57;;
9330;SDS011;4704;50.470;12.072;2022-12-18T06:48:59;5.07;;;4.68;;
9330;SDS011;4704;50.470;12.072;2022-12-18T06:51:27;4.90;;;4.50;;
9330;SDS011;4704;50.470;12.072;2022-12-18T06:53:56;5.47;;;4.97;;
9330;SDS011;4704;50.470;12.072;2022-12-18T06:56:23;5.68;;;5.18;;
9330;SDS011;4704;50.470;12.072;2022-12-18T06:58:51;5.05;;;4.65;;
9330;SDS011;4704;50.470;12.072;2022-12-18T07:01:18;5.30;;;4.82;;
9330;SDS011;4704;50.470;12.072;2022-12-18T07:03:46;5.43;;;4.93;;
9330;SDS011;4704;50.470;12.072;2022-12-18T07:06:13;5.07;;;4.65;;
9330;SDS011;4704;50.470;12.072;2022-12-18T07:08:41;5.13;;;4.72;;
9330;SDS011;4704;50.470;12.072;2022-12-18T07:11:10;5.38;;;4.88;;
9330;SDS011;4704;50.470;12.072;2022-12-18T07:13:38;4.80;;;4.40;;
9330;SDS011;4704;50.470;12.072;2022-12-18T07:16:06;5.18;;;4.70;;
9330;SDS011;4704;50.470;12.072;2022-12-18T07:18:34;4.95;;;4.53;;
9330;SDS011;4704;50.470;12.072;2022-12-18T07:21:02;5.00;;;4.60;;
9330;SDS011;4704;50.470;12.072;2022-12-18T07:23:31;5.30;;;4.80;;
9330;SDS011;4704;50.470;12.072;2022-12-18T07:26:00;5.00;;;4.50;;
9330;SDS011;4704;50.470;12.072;2022-12-18T07:28:29;4.88;;;4.47;;
9330;SDS011;4704;50.470;12.072;2022-12-18T07:30:57;4.60;;;4.20;;
9330;SDS011;4704;50.470;12.072;2022-12-18T07:33:24;5.25;;;4.85;;
9330;SDS011;4704;50.470;12.072;2022-12-18T07:35:52;5.28;;;4.78;;
9330;SDS011;4704;50.470;12.072;2022-12-18T07:38:19;4.95;;;4.55;;
9330;SDS011;4704;50.470;12.072;2022-12-18T07:40:47;5.63;;;5.13;;
9330;SDS011;4704;50.470;12.072;2022-12-18T07:43:14;5.13;;;4.72;;
9330;SDS011;4704;50.470;12.072;2022-12-18T07:45:43;4.75;;;4.35;;
9330;SDS011;4704;50.470;12.072;2022-12-18T07:48:11;5.22;;;4.82;;
9330;SDS011;4704;50.470;12.072;2022-12-18T07:50:38;4.90;;;4.50;;
9330;SDS011;4704;50.470;12.072;2022-12-18T07:53:05;5.03;;;4.63;;
9330;SDS011;4704;50.470;12.072;2022-12-18T07:55:33;4.93;;;4.53;;
9330;SDS011;4704;50.470;12.072;2022-12-18T07:58:01;5.35;;;4.85;;
9330;SDS011;4704;50.470;12.072;2022-12-18T08:00:28;4.85;;;4.45;;
9330;SDS011;4704;50.470;12.072;2022-12-18T08:02:57;5.50;;;5.00;;
9330;SDS011;4704;50.470;12.072;2022-12-18T08:05:25;5.18;;;4.68;;
9330;SDS011;4704;50.470;12.072;2022-12-18T08:07:52;5.57;;;4.90;;
9330;SDS011;4704;50.470;12.072;2022-12-18T08:10:21;5.00;;;4.60;;
9330;SDS011;4704;50.470;12.072;2022-12-18T08:12:49;4.85;;;4.40;;
9330;SDS011;4704;50.470;12.072;2022-12-18T08:15:17;4.70;;;4.30;;
9330;SDS011;4704;50.470;12.072;2022-12-18T08:17:44;5.15;;;4.72;;
9330;SDS011;4704;50.470;12.072;2022-12-18T08:20:13;5.05;;;4.65;;
9330;SDS011;4704;50.470;12.072;2022-12-18T08:22:41;4.97;;;4.57;;
9330;SDS011;4704;50.470;12.072;2022-12-18T08:25:09;5.28;;;4.88;;
9330;SDS011;4704;50.470;12.072;2022-12-18T08:27:36;5.15;;;4.65;;
9330;SDS011;4704;50.470;12.072;2022-12-18T08:30:04;5.43;;;4.93;;
9330;SDS011;4704;50.470;12.072;2022-12-18T08:32:32;4.80;;;4.40;;
9330;SDS011;4704;50.470;12.072;2022-12-18T08:35:00;5.32;;;4.82;;
9330;SDS011;4704;50.470;12.072;2022-12-18T08:37:28;4.78;;;4.38;;
9330;SDS011;4704;50.470;12.072;2022-12-18T08:39:56;5.07;;;4.68;;
9330;SDS011;4704;50.470;12.072;2022-12-18T08:42:23;5.30;;;4.80;;
9330;SDS011;4704;50.470;12.072;2022-12-18T08:45:08;5.00;;;4.60;;
9330;SDS011;4704;50.470;12.072;2022-12-18T08:47:36;5.43;;;5.00;;
9330;SDS011;4704;50.470;12.072;2022-12-18T08:50:03;4.95;;;4.53;;
9330;SDS011;4704;50.470;12.072;2022-12-18T08:52:32;5.28;;;4.78;;
9330;SDS011;4704;50.470;12.072;2022-12-18T08:55:00;5.53;;;5.07;;
9330;SDS011;4704;50.470;12.072;2022-12-18T08:57:27;5.60;;;5.10;;
9330;SDS011;4704;50.470;12.072;2022-12-18T08:59:55;6.05;;;5.55;;
9330;SDS011;4704;50.470;12.072;2022-12-18T09:02:22;5.38;;;4.88;;
9330;SDS011;4704;50.470;12.072;2022-12-18T09:04:49;6.07;;;5.57;;
9330;SDS011;4704;50.470;12.072;2022-12-18T09:07:17;5.70;;;5.20;;
9330;SDS011;4704;50.470;12.072;2022-12-18T09:09:46;5.70;;;5.20;;
9330;SDS011;4704;50.470;12.072;2022-12-18T09:12:13;5.82;;;5.22;;
9330;SDS011;4704;50.470;12.072;2022-12-18T09:14:41;6.18;;;5.57;;
9330;SDS011;4704;50.470;12.072;2022-12-18T09:17:08;5.57;;;5.07;;
9330;SDS011;4704;50.470;12.072;2022-12-18T09:19:35;5.70;;;5.20;;
9330;SDS011;4704;50.470;12.072;2022-12-18T09:22:03;6.22;;;5.63;;
9330;SDS011;4704;50.470;12.072;2022-12-18T09:24:30;5.97;;;5.47;;
9330;SDS011;4704;50.470;12.072;2022-12-18T09:26:59;6.13;;;5.63;;
9330;SDS011;4704;50.470;12.072;2022-12-18T09:29:27;6.05;;;5.47;;
9330;SDS011;4704;50.470;12.072;2022-12-18T09:31:54;6.43;;;5.82;;
9330;SDS011;4704;50.470;12.072;2022-12-18T09:34:22;6.20;;;5.70;;
9330;SDS011;4704;50.470;12.072;2022-12-18T09:36:49;6.18;;;5.68;;
9330;SDS011;4704;50.470;12.072;2022-12-18T09:39:17;6.25;;;5.65;;
9330;SDS011;4704;50.470;12.072;2022-12-18T09:41:45;6.30;;;5.68;;
9330;SDS011;4704;50.470;12.072;2022-12-18T09:44:23;7.18;;;6.50;;
9330;SDS011;4704;50.470;12.072;2022-12-18T09:46:53;7.07;;;6.40;;
9330;SDS011;4704;50.470;12.072;2022-12-18T09:49:22;7.00;;;6.30;;
9330;SDS011;4704;50.470;12.072;2022-12-18T09:51:50;6.90;;;6.30;;
9330;SDS011;4704;50.470;12.072;2022-12-18T09:54:22;7.30;;;6.60;;
9330;SDS011;4704;50.470;12.072;2022-12-18T09:56:50;7.35;;;6.65;;
9330;SDS011;4704;50.470;12.072;2022-12-18T09:59:19;7.65;;;6.88;;
9330;SDS011;4704;50.470;12.072;2022-12-18T10:01:49;7.00;;;6.40;;
9330;SDS011;4704;50.470;12.072;2022-12-18T10:04:17;6.85;;;6.25;;
9330;SDS011;4704;50.470;12.072;2022-12-18T10:06:46;7.22;;;6.63;;
9330;SDS011;4704;50.470;12.072;2022-12-18T10:09:17;7.82;;;7.13;;
9330;SDS011;4704;50.470;12.072;2022-12-18T10:11:48;7.28;;;6.68;;
9330;SDS011;4704;50.470;12.072;2022-12-18T10:14:19;8.07;;;7.38;;
9330;SDS011;4704;50.470;12.072;2022-12-18T10:16:51;8.27;;;7.47;;
9330;SDS011;4704;50.470;12.072;2022-12-18T10:19:33;7.68;;;7.03;;
9330;SDS011;4704;50.470;12.072;2022-12-18T10:22:03;7.90;;;7.20;;
9330;SDS011;4704;50.470;12.072;2022-12-18T10:24:37;7.55;;;6.95;;
9330;SDS011;4704;50.470;12.072;2022-12-18T10:27:09;7.50;;;6.90;;
9330;SDS011;4704;50.470;12.072;2022-12-18T10:29:38;7.60;;;6.90;;
9330;SDS011;4704;50.470;12.072;2022-12-18T10:32:07;8.32;;;7.57;;
9330;SDS011;4704;50.470;12.072;2022-12-18T10:34:39;8.25;;;7.45;;
9330;SDS011;4704;50.470;12.072;2022-12-18T10:37:10;7.72;;;7.03;;
9330;SDS011;4704;50.470;12.072;2022-12-18T10:39:39;7.72;;;7.07;;
9330;SDS011;4704;50.470;12.072;2022-12-18T10:42:09;7.43;;;6.80;;
9330;SDS011;4704;50.470;12.072;2022-12-18T10:44:38;8.43;;;7.63;;
9330;SDS011;4704;50.470;12.072;2022-12-18T10:47:06;8.15;;;7.45;;
9330;SDS011;4704;50.470;12.072;2022-12-18T10:49:40;8.63;;;7.82;;
9330;SDS011;4704;50.470;12.072;2022-12-18T10:52:14;8.27;;;7.50;;
9330;SDS011;4704;50.470;12.072;2022-12-18T10:54:45;7.88;;;7.18;;
9330;SDS011;4704;50.470;12.072;2022-12-18T10:57:14;8.20;;;7.43;;
9330;SDS011;4704;50.470;12.072;2022-12-18T10:59:49;7.93;;;7.22;;
9330;SDS011;4704;50.470;12.072;2022-12-18T11:02:24;7.68;;;6.97;;
9330;SDS011;4704;50.470;12.072;2022-12-18T11:04:54;8.50;;;7.75;;
9330;SDS011;4704;50.470;12.072;2022-12-18T11:07:21;7.75;;;7.05;;
9330;SDS011;4704;50.470;12.072;2022-12-18T11:09:59;7.80;;;7.00;;
9330;SDS011;4704;50.470;12.072;2022-12-18T11:12:27;7.75;;;7.05;;
9330;SDS011;4704;50.470;12.072;2022-12-18T11:14:55;8.18;;;7.38;;
9330;SDS011;4704;50.470;12.072;2022-12-18T11:17:25;7.78;;;6.97;;
9330;SDS011;4704;50.470;12.072;2022-12-18T11:19:57;7.43;;;6.75;;
9330;SDS011;4704;50.470;12.072;2022-12-18T11:22:25;8.00;;;7.20;;
9330;SDS011;4704;50.470;12.072;2022-12-18T11:24:55;7.43;;;6.72;;
9330;SDS011;4704;50.470;12.072;2022-12-18T11:27:23;7.82;;;7.13;;
9330;SDS011;4704;50.470;12.072;2022-12-18T11:29:51;7.40;;;6.70;;
9330;SDS011;4704;50.470;12.072;2022-12-18T11:32:29;6.90;;;6.30;;
9330;SDS011;4704;50.470;12.072;2022-12-18T11:35:01;7.32;;;6.63;;
9330;SDS011;4704;50.470;12.072;2022-12-18T11:37:29;6.53;;;5.93;;
9330;SDS011;4704;50.470;12.072;2022-12-18T11:39:57;7.70;;;7.00;;
9330;SDS011;4704;50.470;12.072;2022-12-18T11:42:27;6.80;;;6.20;;
9330;SDS011;4704;50.470;12.072;2022-12-18T11:44:58;7.05;;;6.32;;
9330;SDS011;4704;50.470;12.072;2022-12-18T11:47:27;6.35;;;5.75;;
9330;SDS011;4704;50.470;12.072;2022-12-18T11:49:56;6.18;;;5.57;;
9330;SDS011;4704;50.470;12.072;2022-12-18T11:52:30;6.78;;;6.05;;
9330;SDS011;4704;50.470;12.072;2022-12-18T11:54:59;6.25;;;5.65;;
9330;SDS011;4704;50.470;12.072;2022-12-18T11:57:30;5.80;;;5.30;;
9330;SDS011;4704;50.470;12.072;2022-12-18T12:00:02;6.03;;;5.53;;
9330;SDS011;4704;50.470;12.072;2022-12-18T12:05:18;5.70;;;5.20;;
9330;SDS011;4704;50.470;12.072;2022-12-18T12:07:50;5.93;;;5.32;;
9330;SDS011;4704;50.470;12.072;2022-12-18T12:10:25;5.38;;;4.88;;
9330;SDS011;4704;50.470;12.072;2022-12-18T12:12:59;5.70;;;5.20;;
9330;SDS011;4704;50.470;12.072;2022-12-18T12:15:36;5.40;;;4.90;;
9330;SDS011;4704;50.470;12.072;2022-12-18T12:18:08;5.35;;;4.85;;
9330;SDS011;4704;50.470;12.072;2022-12-18T12:20:43;4.85;;;4.45;;
9330;SDS011;4704;50.470;12.072;2022-12-18T12:23:15;4.75;;;4.35;;
9330;SDS011;4704;50.470;12.072;2022-12-18T12:25:48;5.03;;;4.55;;
9330;SDS011;4704;50.470;12.072;2022-12-18T12:28:21;5.03;;;4.38;;
9330;SDS011;4704;50.470;12.072;2022-12-18T12:30:54;4.65;;;4.25;;
9330;SDS011;4704;50.470;12.072;2022-12-18T12:33:28;4.35;;;3.95;;
9330;SDS011;4704;50.470;12.072;2022-12-18T12:36:00;4.50;;;4.10;;
9330;SDS011;4704;50.470;12.072;2022-12-18T12:38:32;4.05;;;3.65;;
9330;SDS011;4704;50.470;12.072;2022-12-18T12:41:02;4.38;;;3.97;;
9330;SDS011;4704;50.470;12.072;2022-12-18T12:43:33;4.75;;;4.35;;
9330;SDS011;4704;50.470;12.072;2022-12-18T12:46:03;4.35;;;3.95;;
9330;SDS011;4704;50.470;12.072;2022-12-18T12:48:32;4.22;;;3.72;;
9330;SDS011;4704;50.470;12.072;2022-12-18T12:51:02;4.53;;;4.13;;
9330;SDS011;4704;50.470;12.072;2022-12-18T12:53:32;3.83;;;3.53;;
9330;SDS011;4704;50.470;12.072;2022-12-18T12:56:01;4.00;;;3.63;;
9330;SDS011;4704;50.470;12.072;2022-12-18T12:58:31;4.00;;;3.70;;
9330;SDS011;4704;50.470;12.072;2022-12-18T13:01:08;4.30;;;3.90;;
9330;SDS011;4704;50.470;12.072;2022-12-18T13:03:41;4.68;;;4.13;;
9330;SDS011;4704;50.470;12.072;2022-12-18T13:06:12;3.90;;;3.50;;
9330;SDS011;4704;50.470;12.072;2022-12-18T13:08:52;4.10;;;3.70;;
9330;SDS011;4704;50.470;12.072;2022-12-18T13:11:30;4.22;;;3.83;;
9330;SDS011;4704;50.470;12.072;2022-12-18T13:14:23;3.72;;;3.42;;
9330;SDS011;4704;50.470;12.072;2022-12-18T13:16:50;4.00;;;3.60;;
9330;SDS011;4704;50.470;12.072;2022-12-18T13:19:22;3.78;;;3.40;;
9330;SDS011;4704;50.470;12.072;2022-12-18T13:21:54;4.00;;;3.60;;
9330;SDS011;4704;50.470;12.072;2022-12-18T13:24:26;3.92;;;3.63;;
9330;SDS011;4704;50.470;12.072;2022-12-18T13:26:54;3.85;;;3.45;;
9330;SDS011;4704;50.470;12.072;2022-12-18T13:37:42;3.97;;;3.58;;
9330;SDS011;4704;50.470;12.072;2022-12-18T13:42:57;3.30;;;3.00;;
9330;SDS011;4704;50.470;12.072;2022-12-18T13:45:46;3.22;;;2.92;;
9330;SDS011;4704;50.470;12.072;2022-12-18T13:48:18;3.75;;;3.33;;
9330;SDS011;4704;50.470;12.072;2022-12-18T13:50:57;3.58;;;3.28;;
9330;SDS011;4704;50.470;12.072;2022-12-18T13:53:26;3.60;;;3.30;;
9330;SDS011;4704;50.470;12.072;2022-12-18T13:55:54;3.55;;;3.25;;
9330;SDS011;4704;50.470;12.072;2022-12-18T13:58:23;3.35;;;3.05;;
9330;SDS011;4704;50.470;12.072;2022-12-18T14:00:50;3.83;;;3.42;;
9330;SDS011;4704;50.470;12.072;2022-12-18T14:03:19;4.22;;;3.50;;
9330;SDS011;4704;50.470;12.072;2022-12-18T14:05:51;3.53;;;3.22;;
9330;SDS011;4704;50.470;12.072;2022-12-18T14:08:19;3.40;;;3.10;;
9330;SDS011;4704;50.470;12.072;2022-12-18T14:10:48;4.43;;;3.70;;
9330;SDS011;4704;50.470;12.072;2022-12-18T14:13:19;3.60;;;3.30;;
9330;SDS011;4704;50.470;12.072;2022-12-18T14:15:50;3.22;;;2.92;;
9330;SDS011;4704;50.470;12.072;2022-12-18T14:18:19;3.30;;;3.00;;
9330;SDS011;4704;50.470;12.072;2022-12-18T14:20:48;3.47;;;3.17;;
9330;SDS011;4704;50.470;12.072;2022-12-18T14:23:28;3.30;;;3.00;;
9330;SDS011;4704;50.470;12.072;2022-12-18T14:25:57;3.97;;;3.40;;
9330;SDS011;4704;50.470;12.072;2022-12-18T14:28:26;3.50;;;3.20;;
9330;SDS011;4704;50.470;12.072;2022-12-18T14:30:55;3.17;;;2.90;;
9330;SDS011;4704;50.470;12.072;2022-12-18T14:33:23;3.47;;;3.10;;
9330;SDS011;4704;50.470;12.072;2022-12-18T14:35:55;3.45;;;2.88;;
9330;SDS011;4704;50.470;12.072;2022-12-18T14:38:25;4.25;;;3.08;;
9330;SDS011;4704;50.470;12.072;2022-12-18T14:40:53;3.75;;;3.17;;
9330;SDS011;4704;50.470;12.072;2022-12-18T14:43:21;3.13;;;2.83;;
9330;SDS011;4704;50.470;12.072;2022-12-18T14:45:48;3.78;;;3.30;;
9330;SDS011;4704;50.470;12.072;2022-12-18T14:48:18;3.17;;;2.88;;
9330;SDS011;4704;50.470;12.072;2022-12-18T14:50:53;3.47;;;3.05;;
9330;SDS011;4704;50.470;12.072;2022-12-18T14:53:22;2.97;;;2.78;;
9330;SDS011;4704;50.470;12.072;2022-12-18T14:55:50;3.15;;;2.85;;
9330;SDS011;4704;50.470;12.072;2022-12-18T14:58:18;4.05;;;3.38;;
9330;SDS011;4704;50.470;12.072;2022-12-18T15:00:45;3.05;;;2.75;;
9330;SDS011;4704;50.470;12.072;2022-12-18T15:03:14;3.40;;;3.10;;
9330;SDS011;4704;50.470;12.072;2022-12-18T15:05:46;3.10;;;2.80;;
9330;SDS011;4704;50.470;12.072;2022-12-18T15:08:26;3.05;;;2.75;;
9330;SDS011;4704;50.470;12.072;2022-12-18T15:10:55;4.30;;;3.20;;
9330;SDS011;4704;50.470;12.072;2022-12-18T15:13:23;4.95;;;4.57;;
9330;SDS011;4704;50.470;12.072;2022-12-18T15:15:51;66.35;;;60.17;;
9330;SDS011;4704;50.470;12.072;2022-12-18T15:18:19;65.78;;;59.72;;
9330;SDS011;4704;50.470;12.072;2022-12-18T15:20:49;88.47;;;80.63;;
9330;SDS011;4704;50.470;12.072;2022-12-18T15:23:18;97.28;;;88.53;;
9330;SDS011;4704;50.470;12.072;2022-12-18T15:25:47;98.78;;;90.00;;
9330;SDS011;4704;50.470;12.072;2022-12-18T15:28:19;96.38;;;88.00;;